sensor_id;sensor_type;location;lat;lon;timestamp;temperature;humidity
36652;DHT22;53334;51.976;20.144;2022-11-27T00:00:33;25.20;49.70
36652;DHT22;53334;51.976;20.144;2022-11-27T00:03:08;25.20;49.70
36652;DHT22;53334;51.976;20.144;2022-11-27T00:05:50;25.20;49.60
36652;DHT22;53334;51.976;20.144;2022-11-27T00:08:24;25.20;49.70
36652;DHT22;53334;51.976;20.144;2022-11-27T00:11:04;25.20;49.60
36652;DHT22;53334;51.976;20.144;2022-11-27T00:13:39;25.20;50.60
36652;DHT22;53334;51.976;20.144;2022-11-27T00:16:13;25.20;50.90
36652;DHT22;53334;51.976;20.144;2022-11-27T00:18:49;25.20;51.30
36652;DHT22;53334;51.976;20.144;2022-11-27T00:21:25;25.20;51.50
36652;DHT22;53334;51.976;20.144;2022-11-27T00:24:01;25.20;51.50
36652;DHT22;53334;51.976;20.144;2022-11-27T00:26:35;25.20;51.40
36652;DHT22;53334;51.976;20.144;2022-11-27T00:29:09;25.20;51.30
36652;DHT22;53334;51.976;20.144;2022-11-27T00:31:43;25.20;51.40
36652;DHT22;53334;51.976;20.144;2022-11-27T00:34:18;25.20;51.70
36652;DHT22;53334;51.976;20.144;2022-11-27T00:36:52;25.20;51.60
36652;DHT22;53334;51.976;20.144;2022-11-27T00:39:26;25.20;51.80
36652;DHT22;53334;51.976;20.144;2022-11-27T00:42:00;25.20;51.90
36652;DHT22;53334;51.976;20.144;2022-11-27T00:44:33;25.20;51.80
36652;DHT22;53334;51.976;20.144;2022-11-27T00:47:07;25.20;52.00
36652;DHT22;53334;51.976;20.144;2022-11-27T00:49:42;25.20;51.90
36652;DHT22;53334;51.976;20.144;2022-11-27T00:52:16;25.20;52.10
36652;DHT22;53334;51.976;20.144;2022-11-27T00:54:49;25.20;52.00
36652;DHT22;53334;51.976;20.144;2022-11-27T00:57:23;25.20;52.10
36652;DHT22;53334;51.976;20.144;2022-11-27T00:59:57;25.20;52.10
36652;DHT22;53334;51.976;20.144;2022-11-27T01:02:33;25.20;52.20
36652;DHT22;53334;51.976;20.144;2022-11-27T01:05:09;25.20;52.30
36652;DHT22;53334;51.976;20.144;2022-11-27T01:07:43;25.20;52.40
36652;DHT22;53334;51.976;20.144;2022-11-27T01:10:17;25.20;52.50
36652;DHT22;53334;51.976;20.144;2022-11-27T01:12:51;25.20;52.40
36652;DHT22;53334;51.976;20.144;2022-11-27T01:15:24;25.20;52.40
36652;DHT22;53334;51.976;20.144;2022-11-27T01:17:58;25.20;52.40
36652;DHT22;53334;51.976;20.144;2022-11-27T01:20:33;25.20;52.30
36652;DHT22;53334;51.976;20.144;2022-11-27T01:23:10;25.20;52.40
36652;DHT22;53334;51.976;20.144;2022-11-27T01:25:43;25.20;52.30
36652;DHT22;53334;51.976;20.144;2022-11-27T01:28:17;25.20;52.40
36652;DHT22;53334;51.976;20.144;2022-11-27T01:30:51;25.20;52.30
36652;DHT22;53334;51.976;20.144;2022-11-27T01:33:25;25.20;52.40
36652;DHT22;53334;51.976;20.144;2022-11-27T01:36:00;25.20;52.40
36652;DHT22;53334;51.976;20.144;2022-11-27T01:38:35;25.20;52.50
36652;DHT22;53334;51.976;20.144;2022-11-27T01:41:14;25.20;52.40
36652;DHT22;53334;51.976;20.144;2022-11-27T01:43:50;25.20;52.50
36652;DHT22;53334;51.976;20.144;2022-11-27T01:46:29;25.30;52.50
36652;DHT22;53334;51.976;20.144;2022-11-27T01:49:23;25.20;52.50
36652;DHT22;53334;51.976;20.144;2022-11-27T01:52:01;25.30;52.70
36652;DHT22;53334;51.976;20.144;2022-11-27T01:54:38;25.30;52.60
36652;DHT22;53334;51.976;20.144;2022-11-27T01:57:16;25.20;52.50
36652;DHT22;53334;51.976;20.144;2022-11-27T01:59:51;25.30;52.70
36652;DHT22;53334;51.976;20.144;2022-11-27T02:02:27;25.30;52.70
36652;DHT22;53334;51.976;20.144;2022-11-27T02:05:03;25.30;52.70
36652;DHT22;53334;51.976;20.144;2022-11-27T02:07:38;25.30;52.70
36652;DHT22;53334;51.976;20.144;2022-11-27T02:10:15;25.30;52.80
36652;DHT22;53334;51.976;20.144;2022-11-27T02:12:54;25.30;52.80
36652;DHT22;53334;51.976;20.144;2022-11-27T02:15:33;25.30;52.90
36652;DHT22;53334;51.976;20.144;2022-11-27T02:18:13;25.30;52.90
36652;DHT22;53334;51.976;20.144;2022-11-27T02:20:55;25.30;52.90
36652;DHT22;53334;51.976;20.144;2022-11-27T02:27:11;25.30;53.00
36652;DHT22;53334;51.976;20.144;2022-11-27T02:29:56;25.30;53.10
36652;DHT22;53334;51.976;20.144;2022-11-27T02:32:35;25.30;53.00
36652;DHT22;53334;51.976;20.144;2022-11-27T02:35:15;25.30;53.00
36652;DHT22;53334;51.976;20.144;2022-11-27T02:37:55;25.30;53.00
36652;DHT22;53334;51.976;20.144;2022-11-27T02:40:34;25.30;52.90
36652;DHT22;53334;51.976;20.144;2022-11-27T02:43:13;25.30;52.90
36652;DHT22;53334;51.976;20.144;2022-11-27T02:45:51;25.30;52.90
36652;DHT22;53334;51.976;20.144;2022-11-27T02:48:29;25.30;52.90
36652;DHT22;53334;51.976;20.144;2022-11-27T02:51:05;25.30;52.80
36652;DHT22;53334;51.976;20.144;2022-11-27T02:53:44;25.30;52.90
36652;DHT22;53334;51.976;20.144;2022-11-27T02:56:22;25.30;53.00
36652;DHT22;53334;51.976;20.144;2022-11-27T02:59:00;25.30;53.00
36652;DHT22;53334;51.976;20.144;2022-11-27T03:01:40;25.40;53.10
36652;DHT22;53334;51.976;20.144;2022-11-27T03:04:19;25.40;53.10
36652;DHT22;53334;51.976;20.144;2022-11-27T03:07:00;25.30;53.00
36652;DHT22;53334;51.976;20.144;2022-11-27T03:09:38;25.30;53.00
36652;DHT22;53334;51.976;20.144;2022-11-27T03:12:15;25.30;53.00
36652;DHT22;53334;51.976;20.144;2022-11-27T03:14:50;25.30;53.00
36652;DHT22;53334;51.976;20.144;2022-11-27T03:17:36;25.40;53.10
36652;DHT22;53334;51.976;20.144;2022-11-27T03:20:15;25.30;53.10
36652;DHT22;53334;51.976;20.144;2022-11-27T03:22:51;25.30;53.20
36652;DHT22;53334;51.976;20.144;2022-11-27T03:25:24;25.30;53.20
36652;DHT22;53334;51.976;20.144;2022-11-27T03:28:00;25.40;53.20
36652;DHT22;53334;51.976;20.144;2022-11-27T03:30:35;25.30;53.10
36652;DHT22;53334;51.976;20.144;2022-11-27T03:33:11;25.40;53.10
36652;DHT22;53334;51.976;20.144;2022-11-27T03:35:45;25.30;53.00
36652;DHT22;53334;51.976;20.144;2022-11-27T03:38:19;25.30;53.00
36652;DHT22;53334;51.976;20.144;2022-11-27T03:41:00;25.30;53.00
36652;DHT22;53334;51.976;20.144;2022-11-27T03:43:42;25.30;53.00
36652;DHT22;53334;51.976;20.144;2022-11-27T03:46:27;25.30;52.90
36652;DHT22;53334;51.976;20.144;2022-11-27T03:49:09;25.30;52.90
36652;DHT22;53334;51.976;20.144;2022-11-27T03:51:51;25.30;53.00
36652;DHT22;53334;51.976;20.144;2022-11-27T03:54:34;25.30;53.00
36652;DHT22;53334;51.976;20.144;2022-11-27T03:57:16;25.30;53.00
36652;DHT22;53334;51.976;20.144;2022-11-27T03:59:54;25.30;52.90
36652;DHT22;53334;51.976;20.144;2022-11-27T04:02:37;25.30;52.90
36652;DHT22;53334;51.976;20.144;2022-11-27T04:05:13;25.30;52.90
36652;DHT22;53334;51.976;20.144;2022-11-27T04:07:47;25.30;52.90
36652;DHT22;53334;51.976;20.144;2022-11-27T04:10:21;25.30;52.90
36652;DHT22;53334;51.976;20.144;2022-11-27T04:12:55;25.30;52.90
36652;DHT22;53334;51.976;20.144;2022-11-27T04:15:29;25.30;52.90
36652;DHT22;53334;51.976;20.144;2022-11-27T04:18:03;25.30;52.90
36652;DHT22;53334;51.976;20.144;2022-11-27T04:20:38;25.30;52.90
36652;DHT22;53334;51.976;20.144;2022-11-27T04:23:12;25.30;52.90
36652;DHT22;53334;51.976;20.144;2022-11-27T04:25:47;25.30;52.90
36652;DHT22;53334;51.976;20.144;2022-11-27T04:28:21;25.30;53.00
36652;DHT22;53334;51.976;20.144;2022-11-27T04:30:55;25.30;53.00
36652;DHT22;53334;51.976;20.144;2022-11-27T04:33:29;25.30;53.10
36652;DHT22;53334;51.976;20.144;2022-11-27T04:36:05;25.30;53.10
36652;DHT22;53334;51.976;20.144;2022-11-27T04:38:39;25.30;53.10
36652;DHT22;53334;51.976;20.144;2022-11-27T04:41:13;25.30;53.60
36652;DHT22;53334;51.976;20.144;2022-11-27T04:43:47;25.30;53.00
36652;DHT22;53334;51.976;20.144;2022-11-27T04:46:22;25.30;53.00
36652;DHT22;53334;51.976;20.144;2022-11-27T04:48:56;25.30;53.00
36652;DHT22;53334;51.976;20.144;2022-11-27T04:51:32;25.30;53.00
36652;DHT22;53334;51.976;20.144;2022-11-27T04:54:06;25.30;53.00
36652;DHT22;53334;51.976;20.144;2022-11-27T04:56:40;25.30;53.00
36652;DHT22;53334;51.976;20.144;2022-11-27T04:59:14;25.30;53.00
36652;DHT22;53334;51.976;20.144;2022-11-27T05:01:48;25.30;53.00
36652;DHT22;53334;51.976;20.144;2022-11-27T05:04:22;25.30;53.00
36652;DHT22;53334;51.976;20.144;2022-11-27T05:06:57;25.30;53.00
36652;DHT22;53334;51.976;20.144;2022-11-27T05:09:31;25.30;53.00
36652;DHT22;53334;51.976;20.144;2022-11-27T05:12:05;25.30;53.00
36652;DHT22;53334;51.976;20.144;2022-11-27T05:14:40;25.30;53.00
36652;DHT22;53334;51.976;20.144;2022-11-27T05:17:14;25.30;53.00
36652;DHT22;53334;51.976;20.144;2022-11-27T05:19:48;25.30;53.00
36652;DHT22;53334;51.976;20.144;2022-11-27T05:22:24;25.30;53.00
36652;DHT22;53334;51.976;20.144;2022-11-27T05:24:58;25.30;53.00
36652;DHT22;53334;51.976;20.144;2022-11-27T05:27:31;25.30;53.10
36652;DHT22;53334;51.976;20.144;2022-11-27T05:30:06;25.30;53.10
36652;DHT22;53334;51.976;20.144;2022-11-27T05:32:40;25.30;53.10
36652;DHT22;53334;51.976;20.144;2022-11-27T05:35:14;25.30;53.10
36652;DHT22;53334;51.976;20.144;2022-11-27T05:37:50;25.30;53.20
36652;DHT22;53334;51.976;20.144;2022-11-27T05:40:24;25.30;53.20
36652;DHT22;53334;51.976;20.144;2022-11-27T05:42:58;25.30;53.10
36652;DHT22;53334;51.976;20.144;2022-11-27T05:45:32;25.30;53.10
36652;DHT22;53334;51.976;20.144;2022-11-27T05:48:06;25.30;53.10
36652;DHT22;53334;51.976;20.144;2022-11-27T05:50:39;25.30;53.10
36652;DHT22;53334;51.976;20.144;2022-11-27T05:53:15;25.30;53.20
36652;DHT22;53334;51.976;20.144;2022-11-27T05:55:49;25.30;53.20
36652;DHT22;53334;51.976;20.144;2022-11-27T05:58:22;25.30;53.80
36652;DHT22;53334;51.976;20.144;2022-11-27T06:00:57;25.30;53.30
36652;DHT22;53334;51.976;20.144;2022-11-27T06:03:31;25.30;53.30
36652;DHT22;53334;51.976;20.144;2022-11-27T06:06:06;25.30;53.30
36652;DHT22;53334;51.976;20.144;2022-11-27T06:08:42;25.30;53.30
36652;DHT22;53334;51.976;20.144;2022-11-27T06:11:18;25.30;53.30
36652;DHT22;53334;51.976;20.144;2022-11-27T06:13:53;25.30;53.30
36652;DHT22;53334;51.976;20.144;2022-11-27T06:16:26;25.30;53.30
36652;DHT22;53334;51.976;20.144;2022-11-27T06:19:00;25.30;53.30
36652;DHT22;53334;51.976;20.144;2022-11-27T06:21:34;25.30;53.40
36652;DHT22;53334;51.976;20.144;2022-11-27T06:24:11;25.30;53.40
36652;DHT22;53334;51.976;20.144;2022-11-27T06:26:45;25.30;53.40
36652;DHT22;53334;51.976;20.144;2022-11-27T06:29:19;25.30;53.30
36652;DHT22;53334;51.976;20.144;2022-11-27T06:31:52;25.30;53.20
36652;DHT22;53334;51.976;20.144;2022-11-27T06:34:26;25.30;53.00
36652;DHT22;53334;51.976;20.144;2022-11-27T06:37:01;25.30;53.30
36652;DHT22;53334;51.976;20.144;2022-11-27T06:39:47;25.30;53.40
36652;DHT22;53334;51.976;20.144;2022-11-27T06:42:21;25.30;53.30
36652;DHT22;53334;51.976;20.144;2022-11-27T06:44:55;25.30;53.00
36652;DHT22;53334;51.976;20.144;2022-11-27T06:47:29;25.30;52.80
36652;DHT22;53334;51.976;20.144;2022-11-27T06:50:04;25.20;52.50
36652;DHT22;53334;51.976;20.144;2022-11-27T06:52:38;25.20;52.30
36652;DHT22;53334;51.976;20.144;2022-11-27T06:55:13;25.30;52.20
36652;DHT22;53334;51.976;20.144;2022-11-27T06:57:49;25.20;51.60
36652;DHT22;53334;51.976;20.144;2022-11-27T07:00:23;25.20;52.10
36652;DHT22;53334;51.976;20.144;2022-11-27T07:02:57;25.20;52.20
36652;DHT22;53334;51.976;20.144;2022-11-27T07:05:30;25.20;52.20
36652;DHT22;53334;51.976;20.144;2022-11-27T07:08:05;25.20;52.20
36652;DHT22;53334;51.976;20.144;2022-11-27T07:10:42;25.20;52.40
36652;DHT22;53334;51.976;20.144;2022-11-27T07:13:16;25.20;52.50
36652;DHT22;53334;51.976;20.144;2022-11-27T07:15:49;25.20;52.50
36652;DHT22;53334;51.976;20.144;2022-11-27T07:18:23;25.20;52.00
36652;DHT22;53334;51.976;20.144;2022-11-27T07:20:57;25.20;52.30
36652;DHT22;53334;51.976;20.144;2022-11-27T07:23:31;25.20;51.70
36652;DHT22;53334;51.976;20.144;2022-11-27T07:26:07;25.20;52.10
36652;DHT22;53334;51.976;20.144;2022-11-27T07:28:42;25.20;52.20
36652;DHT22;53334;51.976;20.144;2022-11-27T07:31:17;25.10;52.30
36652;DHT22;53334;51.976;20.144;2022-11-27T07:33:52;25.20;52.40
36652;DHT22;53334;51.976;20.144;2022-11-27T07:36:28;25.20;52.30
36652;DHT22;53334;51.976;20.144;2022-11-27T07:39:02;25.20;52.60
36652;DHT22;53334;51.976;20.144;2022-11-27T07:41:38;25.20;51.20
36652;DHT22;53334;51.976;20.144;2022-11-27T07:44:12;25.20;50.40
36652;DHT22;53334;51.976;20.144;2022-11-27T07:46:45;25.20;49.90
36652;DHT22;53334;51.976;20.144;2022-11-27T07:49:19;25.20;49.70
36652;DHT22;53334;51.976;20.144;2022-11-27T07:51:53;25.10;49.60
36652;DHT22;53334;51.976;20.144;2022-11-27T07:54:27;25.10;49.50
36652;DHT22;53334;51.976;20.144;2022-11-27T07:57:02;25.10;49.40
36652;DHT22;53334;51.976;20.144;2022-11-27T07:59:36;25.10;49.50
36652;DHT22;53334;51.976;20.144;2022-11-27T08:02:17;25.10;49.60
36652;DHT22;53334;51.976;20.144;2022-11-27T08:04:50;25.10;49.60
36652;DHT22;53334;51.976;20.144;2022-11-27T08:07:26;25.10;49.50
36652;DHT22;53334;51.976;20.144;2022-11-27T08:10:00;25.10;49.50
36652;DHT22;53334;51.976;20.144;2022-11-27T08:12:35;25.10;49.40
36652;DHT22;53334;51.976;20.144;2022-11-27T08:15:10;25.10;49.20
36652;DHT22;53334;51.976;20.144;2022-11-27T08:17:44;25.10;48.90
36652;DHT22;53334;51.976;20.144;2022-11-27T08:20:18;25.10;48.60
36652;DHT22;53334;51.976;20.144;2022-11-27T08:22:52;25.10;48.40
36652;DHT22;53334;51.976;20.144;2022-11-27T08:25:33;25.10;48.30
36652;DHT22;53334;51.976;20.144;2022-11-27T08:28:09;25.10;48.40
36652;DHT22;53334;51.976;20.144;2022-11-27T08:30:43;25.10;48.70
36652;DHT22;53334;51.976;20.144;2022-11-27T08:33:17;25.10;48.80
36652;DHT22;53334;51.976;20.144;2022-11-27T08:35:51;25.20;49.00
36652;DHT22;53334;51.976;20.144;2022-11-27T08:38:25;25.20;49.60
36652;DHT22;53334;51.976;20.144;2022-11-27T08:41:01;25.20;49.90
36652;DHT22;53334;51.976;20.144;2022-11-27T08:43:36;25.20;50.40
36652;DHT22;53334;51.976;20.144;2022-11-27T08:46:10;25.20;50.70
36652;DHT22;53334;51.976;20.144;2022-11-27T08:48:45;25.20;51.30
36652;DHT22;53334;51.976;20.144;2022-11-27T08:51:18;25.20;51.60
36652;DHT22;53334;51.976;20.144;2022-11-27T08:53:52;25.20;51.90
36652;DHT22;53334;51.976;20.144;2022-11-27T08:56:26;25.30;51.90
36652;DHT22;53334;51.976;20.144;2022-11-27T08:59:02;25.30;51.90
36652;DHT22;53334;51.976;20.144;2022-11-27T09:01:36;25.30;51.90
36652;DHT22;53334;51.976;20.144;2022-11-27T09:04:10;25.30;51.80
36652;DHT22;53334;51.976;20.144;2022-11-27T09:06:44;25.30;51.80
36652;DHT22;53334;51.976;20.144;2022-11-27T09:09:18;25.30;51.70
36652;DHT22;53334;51.976;20.144;2022-11-27T09:11:52;25.20;51.60
36652;DHT22;53334;51.976;20.144;2022-11-27T09:14:28;25.30;51.40
36652;DHT22;53334;51.976;20.144;2022-11-27T09:17:02;25.30;51.60
36652;DHT22;53334;51.976;20.144;2022-11-27T09:19:36;25.20;51.50
36652;DHT22;53334;51.976;20.144;2022-11-27T09:22:09;25.20;51.50
36652;DHT22;53334;51.976;20.144;2022-11-27T09:24:44;25.20;51.40
36652;DHT22;53334;51.976;20.144;2022-11-27T09:27:18;25.20;51.40
36652;DHT22;53334;51.976;20.144;2022-11-27T09:29:53;25.20;51.40
36652;DHT22;53334;51.976;20.144;2022-11-27T09:32:27;25.20;51.40
36652;DHT22;53334;51.976;20.144;2022-11-27T09:35:01;25.20;51.30
36652;DHT22;53334;51.976;20.144;2022-11-27T09:37:35;25.20;51.30
36652;DHT22;53334;51.976;20.144;2022-11-27T09:40:13;25.20;51.30
36652;DHT22;53334;51.976;20.144;2022-11-27T09:42:54;25.20;51.30
36652;DHT22;53334;51.976;20.144;2022-11-27T09:45:31;25.20;51.30
36652;DHT22;53334;51.976;20.144;2022-11-27T09:48:11;25.20;51.30
36652;DHT22;53334;51.976;20.144;2022-11-27T09:50:48;25.20;51.30
36652;DHT22;53334;51.976;20.144;2022-11-27T09:53:28;25.20;51.30
36652;DHT22;53334;51.976;20.144;2022-11-27T09:56:06;25.20;51.30
36652;DHT22;53334;51.976;20.144;2022-11-27T09:58:46;25.20;51.30
36652;DHT22;53334;51.976;20.144;2022-11-27T10:01:26;25.20;51.30
36652;DHT22;53334;51.976;20.144;2022-11-27T10:04:13;25.20;51.30
36652;DHT22;53334;51.976;20.144;2022-11-27T10:07:06;25.20;51.30
36652;DHT22;53334;51.976;20.144;2022-11-27T10:09:54;25.20;51.20
36652;DHT22;53334;51.976;20.144;2022-11-27T10:12:38;25.20;51.20
36652;DHT22;53334;51.976;20.144;2022-11-27T10:15:18;25.20;51.20
36652;DHT22;53334;51.976;20.144;2022-11-27T10:17:59;25.20;51.30
36652;DHT22;53334;51.976;20.144;2022-11-27T10:20:38;25.20;51.20
36652;DHT22;53334;51.976;20.144;2022-11-27T10:23:22;25.20;51.20
36652;DHT22;53334;51.976;20.144;2022-11-27T10:26:01;25.20;51.20
36652;DHT22;53334;51.976;20.144;2022-11-27T10:28:42;25.20;51.30
36652;DHT22;53334;51.976;20.144;2022-11-27T10:31:25;25.20;51.20
36652;DHT22;53334;51.976;20.144;2022-11-27T10:34:05;25.20;51.20
36652;DHT22;53334;51.976;20.144;2022-11-27T10:36:47;25.20;51.20
36652;DHT22;53334;51.976;20.144;2022-11-27T10:39:29;25.20;51.20
36652;DHT22;53334;51.976;20.144;2022-11-27T10:42:09;25.20;51.20
36652;DHT22;53334;51.976;20.144;2022-11-27T10:44:49;25.20;51.20
36652;DHT22;53334;51.976;20.144;2022-11-27T10:47:26;25.20;51.10
36652;DHT22;53334;51.976;20.144;2022-11-27T10:50:12;25.20;51.10
36652;DHT22;53334;51.976;20.144;2022-11-27T10:52:51;25.20;51.10
36652;DHT22;53334;51.976;20.144;2022-11-27T10:55:33;25.20;51.20
36652;DHT22;53334;51.976;20.144;2022-11-27T10:58:16;25.20;51.10
36652;DHT22;53334;51.976;20.144;2022-11-27T11:01:00;25.20;51.10
36652;DHT22;53334;51.976;20.144;2022-11-27T11:03:34;25.20;51.10
36652;DHT22;53334;51.976;20.144;2022-11-27T11:06:17;25.20;51.30
36652;DHT22;53334;51.976;20.144;2022-11-27T11:09:02;25.20;50.90
36652;DHT22;53334;51.976;20.144;2022-11-27T11:11:36;25.20;43.00
36652;DHT22;53334;51.976;20.144;2022-11-27T11:14:16;25.20;40.10
36652;DHT22;53334;51.976;20.144;2022-11-27T11:16:51;25.10;38.80
36652;DHT22;53334;51.976;20.144;2022-11-27T11:19:30;25.00;39.30
36652;DHT22;53334;51.976;20.144;2022-11-27T11:22:15;25.00;39.00
36652;DHT22;53334;51.976;20.144;2022-11-27T11:24:51;25.00;34.70
36652;DHT22;53334;51.976;20.144;2022-11-27T11:27:28;24.90;36.50
36652;DHT22;53334;51.976;20.144;2022-11-27T11:30:05;24.90;38.10
36652;DHT22;53334;51.976;20.144;2022-11-27T11:32:39;24.90;38.40
36652;DHT22;53334;51.976;20.144;2022-11-27T11:35:24;24.90;38.20
36652;DHT22;53334;51.976;20.144;2022-11-27T11:38:02;25.00;37.20
36652;DHT22;53334;51.976;20.144;2022-11-27T11:40:37;25.00;37.40
36652;DHT22;53334;51.976;20.144;2022-11-27T11:43:24;25.10;37.50
36652;DHT22;53334;51.976;20.144;2022-11-27T11:46:12;25.20;37.50
36652;DHT22;53334;51.976;20.144;2022-11-27T11:49:04;25.20;37.40
36652;DHT22;53334;51.976;20.144;2022-11-27T11:51:50;25.20;37.60
36652;DHT22;53334;51.976;20.144;2022-11-27T11:54:41;25.30;37.90
36652;DHT22;53334;51.976;20.144;2022-11-27T11:57:37;25.30;35.10
36652;DHT22;53334;51.976;20.144;2022-11-27T12:00:17;25.30;37.80
36652;DHT22;53334;51.976;20.144;2022-11-27T12:03:17;25.30;37.90
36652;DHT22;53334;51.976;20.144;2022-11-27T12:06:12;25.40;39.50
36652;DHT22;53334;51.976;20.144;2022-11-27T12:09:02;25.30;39.70
36652;DHT22;53334;51.976;20.144;2022-11-27T12:11:45;25.30;39.40
36652;DHT22;53334;51.976;20.144;2022-11-27T12:14:28;25.30;36.00
36652;DHT22;53334;51.976;20.144;2022-11-27T12:17:18;25.30;35.20
36652;DHT22;53334;51.976;20.144;2022-11-27T12:20:16;25.20;37.90
36652;DHT22;53334;51.976;20.144;2022-11-27T12:23:15;25.20;39.40
36652;DHT22;53334;51.976;20.144;2022-11-27T12:25:58;25.20;40.10
36652;DHT22;53334;51.976;20.144;2022-11-27T12:31:59;25.20;43.30
36652;DHT22;53334;51.976;20.144;2022-11-27T12:34:42;25.20;44.00
36652;DHT22;53334;51.976;20.144;2022-11-27T12:37:29;25.20;44.50
36652;DHT22;53334;51.976;20.144;2022-11-27T12:40:18;25.20;45.70
36652;DHT22;53334;51.976;20.144;2022-11-27T12:43:03;25.30;46.80
36652;DHT22;53334;51.976;20.144;2022-11-27T12:45:45;25.30;45.80
36652;DHT22;53334;51.976;20.144;2022-11-27T12:48:23;25.40;45.00
36652;DHT22;53334;51.976;20.144;2022-11-27T12:51:02;25.40;44.20
36652;DHT22;53334;51.976;20.144;2022-11-27T12:53:42;25.40;44.20
36652;DHT22;53334;51.976;20.144;2022-11-27T12:56:22;25.40;44.00
36652;DHT22;53334;51.976;20.144;2022-11-27T12:59:03;25.40;43.60
36652;DHT22;53334;51.976;20.144;2022-11-27T13:01:42;25.40;43.40
36652;DHT22;53334;51.976;20.144;2022-11-27T13:04:21;25.30;42.50
36652;DHT22;53334;51.976;20.144;2022-11-27T13:07:03;25.30;42.30
36652;DHT22;53334;51.976;20.144;2022-11-27T13:09:49;25.30;41.30
36652;DHT22;53334;51.976;20.144;2022-11-27T13:12:30;25.30;41.00
36652;DHT22;53334;51.976;20.144;2022-11-27T13:15:13;25.30;40.70
36652;DHT22;53334;51.976;20.144;2022-11-27T13:17:52;25.30;40.00
36652;DHT22;53334;51.976;20.144;2022-11-27T13:20:32;25.30;40.80
36652;DHT22;53334;51.976;20.144;2022-11-27T13:23:07;25.20;40.30
36652;DHT22;53334;51.976;20.144;2022-11-27T13:25:44;25.30;40.40
36652;DHT22;53334;51.976;20.144;2022-11-27T13:28:25;25.30;40.90
36652;DHT22;53334;51.976;20.144;2022-11-27T13:31:02;25.30;41.60
36652;DHT22;53334;51.976;20.144;2022-11-27T13:33:39;25.20;42.10
36652;DHT22;53334;51.976;20.144;2022-11-27T13:36:19;25.30;42.40
36652;DHT22;53334;51.976;20.144;2022-11-27T13:38:56;25.30;42.50
36652;DHT22;53334;51.976;20.144;2022-11-27T13:41:33;25.30;42.50
36652;DHT22;53334;51.976;20.144;2022-11-27T13:44:22;25.40;42.60
36652;DHT22;53334;51.976;20.144;2022-11-27T13:47:03;25.30;42.60
36652;DHT22;53334;51.976;20.144;2022-11-27T13:49:40;25.40;42.90
36652;DHT22;53334;51.976;20.144;2022-11-27T13:52:16;25.40;43.10
36652;DHT22;53334;51.976;20.144;2022-11-27T13:54:53;25.40;43.20
36652;DHT22;53334;51.976;20.144;2022-11-27T13:57:28;25.40;43.20
36652;DHT22;53334;51.976;20.144;2022-11-27T14:00:05;25.40;43.60
36652;DHT22;53334;51.976;20.144;2022-11-27T14:02:47;25.40;43.70
36652;DHT22;53334;51.976;20.144;2022-11-27T14:05:34;25.40;43.70
36652;DHT22;53334;51.976;20.144;2022-11-27T14:08:17;25.50;43.90
36652;DHT22;53334;51.976;20.144;2022-11-27T14:10:55;25.50;43.80
36652;DHT22;53334;51.976;20.144;2022-11-27T14:13:36;25.40;43.70
36652;DHT22;53334;51.976;20.144;2022-11-27T14:16:21;25.40;43.70
36652;DHT22;53334;51.976;20.144;2022-11-27T14:18:59;25.50;43.90
36652;DHT22;53334;51.976;20.144;2022-11-27T14:21:38;25.50;43.90
36652;DHT22;53334;51.976;20.144;2022-11-27T14:24:26;25.50;44.30
36652;DHT22;53334;51.976;20.144;2022-11-27T14:27:06;25.50;44.40
36652;DHT22;53334;51.976;20.144;2022-11-27T14:29:46;25.50;44.50
36652;DHT22;53334;51.976;20.144;2022-11-27T14:32:20;25.50;44.60
36652;DHT22;53334;51.976;20.144;2022-11-27T14:34:54;25.50;44.70
36652;DHT22;53334;51.976;20.144;2022-11-27T14:37:32;25.50;44.60
36652;DHT22;53334;51.976;20.144;2022-11-27T14:40:12;25.50;44.50
36652;DHT22;53334;51.976;20.144;2022-11-27T14:42:46;25.50;44.60
36652;DHT22;53334;51.976;20.144;2022-11-27T14:45:21;25.60;44.30
36652;DHT22;53334;51.976;20.144;2022-11-27T14:47:55;25.50;44.30
36652;DHT22;53334;51.976;20.144;2022-11-27T14:50:29;25.60;44.40
36652;DHT22;53334;51.976;20.144;2022-11-27T14:53:04;25.50;45.00
36652;DHT22;53334;51.976;20.144;2022-11-27T14:55:38;25.50;44.30
36652;DHT22;53334;51.976;20.144;2022-11-27T14:58:17;25.60;44.10
36652;DHT22;53334;51.976;20.144;2022-11-27T15:00:56;25.50;43.70
36652;DHT22;53334;51.976;20.144;2022-11-27T15:03:30;25.60;43.40
36652;DHT22;53334;51.976;20.144;2022-11-27T15:06:06;25.50;43.20
36652;DHT22;53334;51.976;20.144;2022-11-27T15:08:46;25.50;43.10
36652;DHT22;53334;51.976;20.144;2022-11-27T15:11:43;25.50;42.50
36652;DHT22;53334;51.976;20.144;2022-11-27T15:14:27;25.50;42.30
36652;DHT22;53334;51.976;20.144;2022-11-27T15:17:01;25.50;42.50
36652;DHT22;53334;51.976;20.144;2022-11-27T15:19:36;25.40;42.40
36652;DHT22;53334;51.976;20.144;2022-11-27T15:22:15;25.40;42.30
36652;DHT22;53334;51.976;20.144;2022-11-27T15:24:58;25.40;42.30
36652;DHT22;53334;51.976;20.144;2022-11-27T15:27:44;25.40;42.40
36652;DHT22;53334;51.976;20.144;2022-11-27T15:30:19;25.30;42.40
36652;DHT22;53334;51.976;20.144;2022-11-27T15:32:53;25.30;41.80
36652;DHT22;53334;51.976;20.144;2022-11-27T15:35:28;25.30;41.40
36652;DHT22;53334;51.976;20.144;2022-11-27T15:38:08;25.30;41.60
36652;DHT22;53334;51.976;20.144;2022-11-27T15:40:44;25.30;40.70
36652;DHT22;53334;51.976;20.144;2022-11-27T15:43:28;25.30;40.80
36652;DHT22;53334;51.976;20.144;2022-11-27T15:46:04;25.30;40.90
36652;DHT22;53334;51.976;20.144;2022-11-27T15:48:40;25.30;41.00
36652;DHT22;53334;51.976;20.144;2022-11-27T15:51:14;25.30;40.80
36652;DHT22;53334;51.976;20.144;2022-11-27T15:53:48;25.30;40.50
36652;DHT22;53334;51.976;20.144;2022-11-27T15:56:23;25.20;40.30
36652;DHT22;53334;51.976;20.144;2022-11-27T15:58:58;25.20;39.90
36652;DHT22;53334;51.976;20.144;2022-11-27T16:01:32;25.20;39.60
36652;DHT22;53334;51.976;20.144;2022-11-27T16:04:06;25.20;40.00
36652;DHT22;53334;51.976;20.144;2022-11-27T16:06:40;25.20;40.00
36652;DHT22;53334;51.976;20.144;2022-11-27T16:09:15;25.20;40.20
36652;DHT22;53334;51.976;20.144;2022-11-27T16:11:51;25.20;40.30
36652;DHT22;53334;51.976;20.144;2022-11-27T16:14:26;25.20;40.70
36652;DHT22;53334;51.976;20.144;2022-11-27T16:16:59;25.20;40.70
36652;DHT22;53334;51.976;20.144;2022-11-27T16:19:33;25.20;41.20
36652;DHT22;53334;51.976;20.144;2022-11-27T16:22:08;25.20;40.70
36652;DHT22;53334;51.976;20.144;2022-11-27T16:24:42;25.20;40.60